createdAt,value
2018-06-01T00:00:19.393Z,30.77
2018-06-01T00:02:46.960Z,30.50
2018-06-01T00:05:15.465Z,29.30
2018-06-01T00:07:43.135Z,31.07
2018-06-01T00:10:10.765Z,30.87
2018-06-01T00:12:38.411Z,30.93
2018-06-01T00:15:06.032Z,30.67
2018-06-01T00:17:33.833Z,30.63
2018-06-01T00:20:01.484Z,31.80
2018-06-01T00:22:29.350Z,32.20
2018-06-01T00:24:56.913Z,32.47
2018-06-01T00:27:24.513Z,31.97
2018-06-01T00:29:52.158Z,35.23
2018-06-01T00:32:20.063Z,34.50
2018-06-01T00:34:47.667Z,35.20
2018-06-01T00:37:15.231Z,34.20
2018-06-01T00:39:43.071Z,34.10
2018-06-01T00:42:10.670Z,34.60
2018-06-01T00:44:38.352Z,34.80
2018-06-01T00:47:06.327Z,34.87
2018-06-01T00:49:34.140Z,34.83
2018-06-01T00:52:01.804Z,34.93
2018-06-01T00:54:41.279Z,35.10
2018-06-01T00:57:09.144Z,32.50
2018-06-01T00:59:36.826Z,33.93
2018-06-01T01:02:04.796Z,31.43
2018-06-01T01:04:32.452Z,33.90
2018-06-01T01:07:00.106Z,33.10
2018-06-01T01:09:28.073Z,31.90
2018-06-01T01:11:56.269Z,33.23
2018-06-01T01:14:25.901Z,33.07
2018-06-01T01:16:53.640Z,31.00
2018-06-01T01:19:21.307Z,33.47
2018-06-01T01:21:49.056Z,34.57
2018-06-01T01:24:16.688Z,33.43
2018-06-01T01:26:44.329Z,32.67
2018-06-01T01:29:11.920Z,36.87
2018-06-01T01:31:39.669Z,35.40
2018-06-01T01:34:07.372Z,34.97
2018-06-01T01:36:35.198Z,34.47
2018-06-01T01:39:02.941Z,34.90
2018-06-01T01:41:30.570Z,37.40
2018-06-01T01:43:58.436Z,37.30
2018-06-01T01:46:26.119Z,36.63
2018-06-01T01:48:53.878Z,39.80
2018-06-01T01:51:21.777Z,40.40
2018-06-01T01:53:49.635Z,39.63
2018-06-01T01:56:17.478Z,38.77
2018-06-01T01:58:45.092Z,39.93
2018-06-01T02:01:12.749Z,41.20
2018-06-01T02:03:40.349Z,40.10
2018-06-01T02:06:08.444Z,44.10
2018-06-01T02:08:36.476Z,43.53
2018-06-01T02:11:04.271Z,43.93
2018-06-01T02:13:31.893Z,43.70
2018-06-01T02:15:59.930Z,43.20
2018-06-01T02:18:27.531Z,47.60
2018-06-01T02:20:55.200Z,43.97
2018-06-01T02:23:23.497Z,47.40
2018-06-01T02:25:51.058Z,49.70
2018-06-01T02:28:18.624Z,49.63
2018-06-01T02:30:46.225Z,51.33
2018-06-01T02:33:13.885Z,50.40
2018-06-01T02:35:41.655Z,50.73
2018-06-01T02:38:09.332Z,49.57
2018-06-01T02:40:36.893Z,49.43
2018-06-01T02:43:04.940Z,50.13
2018-06-01T02:45:32.505Z,54.53
2018-06-01T02:48:00.075Z,55.40
2018-06-01T02:50:27.685Z,48.77
2018-06-01T02:52:55.497Z,49.50
2018-06-01T02:55:23.068Z,50.47
2018-06-01T02:57:50.657Z,51.47
2018-06-01T03:00:18.451Z,51.90
2018-06-01T03:02:46.107Z,51.70
2018-06-01T03:05:13.747Z,52.70
2018-06-01T03:07:41.376Z,51.00
2018-06-01T03:10:09.004Z,50.83
2018-06-01T03:12:36.578Z,50.57
2018-06-01T03:15:04.178Z,52.07
2018-06-01T03:17:32.137Z,50.80
2018-06-01T03:20:00.305Z,49.40
2018-06-01T03:22:28.485Z,51.73
2018-06-01T03:24:56.552Z,52.87
2018-06-01T03:27:24.561Z,49.87
2018-06-01T03:29:52.549Z,53.40
2018-06-01T03:32:20.776Z,50.37
2018-06-01T03:34:48.503Z,53.40
2018-06-01T03:37:16.163Z,50.00
2018-06-01T03:39:44.074Z,51.27
2018-06-01T03:42:11.681Z,50.43
2018-06-01T03:44:39.313Z,50.63
2018-06-01T03:47:06.946Z,49.17
2018-06-01T03:49:34.514Z,47.83
2018-06-01T03:52:02.218Z,48.77
2018-06-01T03:54:29.856Z,44.70
2018-06-01T03:56:57.717Z,46.53
2018-06-01T03:59:25.309Z,45.90
2018-06-01T04:01:52.878Z,43.53
2018-06-01T04:04:20.710Z,44.63
2018-06-01T04:06:48.266Z,42.97
2018-06-01T04:09:15.833Z,46.23
2018-06-01T04:11:43.429Z,46.73
2018-06-01T04:14:11.111Z,48.37
2018-06-01T04:16:39.155Z,48.80
2018-06-01T04:19:06.726Z,51.47
2018-06-01T04:21:34.299Z,49.60
2018-06-01T04:24:02.100Z,50.10
2018-06-01T04:26:29.724Z,49.30
2018-06-01T04:28:57.292Z,50.50
2018-06-01T04:31:24.891Z,47.80
2018-06-01T04:33:52.836Z,49.57
2018-06-01T04:36:20.649Z,52.23
2018-06-01T04:38:48.279Z,54.30
2018-06-01T04:41:15.874Z,52.63
2018-06-01T04:43:43.440Z,52.47
2018-06-01T04:46:11.100Z,56.63
2018-06-01T04:48:38.902Z,54.43
2018-06-01T04:51:06.896Z,53.43
2018-06-01T04:53:34.481Z,53.80
2018-06-01T04:56:02.060Z,55.70
2018-06-01T04:58:29.719Z,56.17
2018-06-01T05:00:57.309Z,53.93
2018-06-01T05:03:24.953Z,58.50
2018-06-01T05:05:52.605Z,54.47
2018-06-01T05:08:20.240Z,55.63
2018-06-01T05:10:47.826Z,57.20
2018-06-01T05:13:15.605Z,62.47
2018-06-01T05:15:43.193Z,65.93
2018-06-01T05:18:10.774Z,65.17
2018-06-01T05:20:38.466Z,70.93
2018-06-01T05:23:06.081Z,69.00
2018-06-01T05:25:33.695Z,71.90
2018-06-01T05:28:01.364Z,69.77
2018-06-01T05:30:29.192Z,73.63
2018-06-01T05:32:56.803Z,71.47
2018-06-01T05:35:24.759Z,72.10
2018-06-01T05:37:52.616Z,74.37
2018-06-01T05:40:20.569Z,75.00
2018-06-01T05:42:48.257Z,78.43
2018-06-01T05:45:15.928Z,83.67
2018-06-01T05:47:43.681Z,79.80
2018-06-01T05:50:11.365Z,76.77
2018-06-01T05:52:39.267Z,77.97
2018-06-01T05:55:06.980Z,72.00
2018-06-01T05:57:34.870Z,75.77
2018-06-01T06:00:02.965Z,73.57
2018-06-01T06:02:31.353Z,74.17
2018-06-01T06:04:59.470Z,74.53
2018-06-01T06:07:27.702Z,73.07
2018-06-01T06:09:55.941Z,73.33
2018-06-01T06:12:23.857Z,72.07
2018-06-01T06:14:51.628Z,67.03
2018-06-01T06:17:19.373Z,67.30
2018-06-01T06:19:47.202Z,70.70
2018-06-01T06:22:14.933Z,65.10
2018-06-01T06:24:42.691Z,67.17
2018-06-01T06:27:10.756Z,70.17
2018-06-01T06:29:38.702Z,69.33
2018-06-01T06:32:06.454Z,72.20
2018-06-01T06:34:34.301Z,69.00
2018-06-01T06:37:02.177Z,64.87
2018-06-01T06:39:30.006Z,62.70
2018-06-01T06:41:57.692Z,66.00
2018-06-01T06:44:25.308Z,65.80
2018-06-01T06:46:52.946Z,65.13
2018-06-01T06:49:20.558Z,68.40
2018-06-01T06:51:48.317Z,69.43
2018-06-01T06:54:15.891Z,66.30
2018-06-01T06:56:43.464Z,66.43
2018-06-01T06:59:11.285Z,62.37
2018-06-01T07:01:39.019Z,64.57
2018-06-01T07:04:06.643Z,62.17
2018-06-01T07:06:34.244Z,60.90
2018-06-01T07:09:01.978Z,62.50
2018-06-01T07:11:29.657Z,58.57
2018-06-01T07:13:57.228Z,57.40
2018-06-01T07:16:25.152Z,55.20
2018-06-01T07:18:53.220Z,54.83
2018-06-01T07:21:21.141Z,52.63
2018-06-01T07:23:49.049Z,55.20
2018-06-01T07:26:16.850Z,54.07
2018-06-01T07:28:44.430Z,53.20
2018-06-01T07:31:12.237Z,52.20
2018-06-01T07:33:39.950Z,51.43
2018-06-01T07:36:07.624Z,50.10
2018-06-01T07:38:35.258Z,48.90
2018-06-01T07:41:02.856Z,53.33
2018-06-01T07:43:30.511Z,51.07
2018-06-01T07:45:58.152Z,51.23
2018-06-01T07:48:26.245Z,48.03
2018-06-01T07:50:53.825Z,47.87
2018-06-01T07:53:21.666Z,49.80
2018-06-01T07:55:49.642Z,49.67
2018-06-01T07:58:17.320Z,53.60
2018-06-01T08:00:44.976Z,46.77
2018-06-01T08:03:13.522Z,49.17
2018-06-01T08:05:41.099Z,47.87
2018-06-01T08:08:08.752Z,45.83
2018-06-01T08:10:36.383Z,44.40
2018-06-01T08:13:03.977Z,44.27
2018-06-01T08:15:31.962Z,43.10
2018-06-01T08:17:59.587Z,42.90
2018-06-01T08:20:27.196Z,41.43
2018-06-01T08:22:54.870Z,43.43
2018-06-01T08:25:22.449Z,40.13
2018-06-01T08:27:50.041Z,38.80
2018-06-01T08:30:17.722Z,39.70
2018-06-01T08:32:45.340Z,38.77
2018-06-01T08:35:12.957Z,35.73
2018-06-01T08:37:40.578Z,37.43
2018-06-01T08:40:08.187Z,35.57
2018-06-01T08:42:35.928Z,41.27
2018-06-01T08:45:03.752Z,42.23
2018-06-01T08:47:31.566Z,37.60
2018-06-01T08:49:59.157Z,36.40
2018-06-01T08:52:26.799Z,36.50
2018-06-01T08:54:54.425Z,38.40
2018-06-01T08:57:22.310Z,43.90
2018-06-01T08:59:49.941Z,42.27
2018-06-01T09:05:10.705Z,39.80
2018-06-01T09:07:38.276Z,38.13
2018-06-01T09:10:05.946Z,35.83
2018-06-01T09:12:33.801Z,33.40
2018-06-01T09:15:01.398Z,34.23
2018-06-01T09:17:28.969Z,32.80
2018-06-01T09:19:56.674Z,36.53
2018-06-01T09:22:24.296Z,31.17
2018-06-01T09:24:51.941Z,30.67
2018-06-01T09:27:19.788Z,31.23
2018-06-01T09:29:47.595Z,34.90
2018-06-01T09:32:15.181Z,34.57
2018-06-01T09:34:42.902Z,36.37
2018-06-01T09:37:10.480Z,35.30
2018-06-01T09:39:38.298Z,34.63
2018-06-01T09:42:05.948Z,34.90
2018-06-01T09:44:33.517Z,33.60
2018-06-01T09:47:01.174Z,35.80
2018-06-01T09:49:28.752Z,35.30
2018-06-01T09:51:56.312Z,35.03
2018-06-01T09:54:23.915Z,33.47
2018-06-01T09:56:51.512Z,35.40
2018-06-01T09:59:19.136Z,34.03
2018-06-01T10:01:46.733Z,32.93
2018-06-01T10:04:14.352Z,35.20
2018-06-01T10:06:41.996Z,35.30
2018-06-01T10:09:09.621Z,36.70
2018-06-01T10:11:37.415Z,37.23
2018-06-01T10:14:05.118Z,36.10
2018-06-01T10:16:32.747Z,33.83
2018-06-01T10:19:00.314Z,38.90
2018-06-01T10:21:27.906Z,35.60
2018-06-01T10:23:55.467Z,34.60
2018-06-01T10:26:23.288Z,39.70
2018-06-01T10:28:50.908Z,36.10
2018-06-01T10:31:18.476Z,40.50
2018-06-01T10:33:46.709Z,42.43
2018-06-01T10:36:14.293Z,40.80
2018-06-01T10:38:42.090Z,39.50
2018-06-01T10:41:09.910Z,39.77
2018-06-01T10:43:37.476Z,36.00
2018-06-01T10:46:05.466Z,40.97
2018-06-01T10:48:33.084Z,33.90
2018-06-01T10:51:00.893Z,33.63
2018-06-01T10:53:28.600Z,36.40
2018-06-01T10:55:56.396Z,38.13
2018-06-01T10:58:23.965Z,36.90
2018-06-01T11:00:51.551Z,33.93
2018-06-01T11:03:19.350Z,36.47
2018-06-01T11:05:47.334Z,35.70
2018-06-01T11:08:14.906Z,34.40
2018-06-01T11:10:42.472Z,36.60
2018-06-01T11:13:10.071Z,35.53
2018-06-01T11:15:37.632Z,35.10
2018-06-01T11:18:05.225Z,35.10
2018-06-01T11:20:32.848Z,35.20
2018-06-01T11:23:00.500Z,34.27
2018-06-01T11:25:28.104Z,33.40
2018-06-01T11:27:55.735Z,30.30
2018-06-01T11:30:23.304Z,31.47
2018-06-01T11:32:50.868Z,30.07
2018-06-01T11:35:18.565Z,32.83
2018-06-01T11:37:46.142Z,31.40
2018-06-01T11:40:13.713Z,30.37
2018-06-01T11:42:41.422Z,30.93
2018-06-01T11:45:08.990Z,24.33
2018-06-01T11:47:36.607Z,31.37
2018-06-01T11:50:04.437Z,34.37
2018-06-01T11:52:31.997Z,27.90
2018-06-01T11:54:59.703Z,30.27
2018-06-01T11:57:27.317Z,28.63
2018-06-01T11:59:55.139Z,30.57
2018-06-01T12:02:22.743Z,33.50
2018-06-01T12:04:50.309Z,32.40
2018-06-01T12:07:18.127Z,30.60
2018-06-01T12:09:45.717Z,30.57
2018-06-01T12:12:13.315Z,29.63
2018-06-01T12:14:40.875Z,31.50
2018-06-01T12:17:08.471Z,26.60
2018-06-01T12:19:36.045Z,30.13
2018-06-01T12:22:03.745Z,31.20
2018-06-01T12:24:31.316Z,31.50
2018-06-01T12:26:58.909Z,34.90
2018-06-01T12:29:26.564Z,36.73
2018-06-01T12:31:54.343Z,36.67
2018-06-01T12:34:21.909Z,37.37
2018-06-01T12:36:49.549Z,37.90
2018-06-01T12:39:17.120Z,39.17
2018-06-01T12:41:44.685Z,36.60
2018-06-01T12:44:12.278Z,40.60
2018-06-01T12:46:39.877Z,39.93
2018-06-01T12:49:07.640Z,36.30
2018-06-01T12:51:35.282Z,38.43
2018-06-01T12:54:02.881Z,37.73
2018-06-01T12:56:31.121Z,37.77
2018-06-01T12:58:58.704Z,35.43
2018-06-01T13:01:26.566Z,33.60
2018-06-01T13:03:54.259Z,35.60
2018-06-01T13:06:21.831Z,34.93
2018-06-01T13:08:49.676Z,37.50
2018-06-01T13:11:17.278Z,37.30
2018-06-01T13:13:44.986Z,37.37
2018-06-01T13:16:12.544Z,39.50
2018-06-01T13:18:40.166Z,37.97
2018-06-01T13:21:08.223Z,38.80
2018-06-01T13:23:35.812Z,41.53
2018-06-01T13:26:03.469Z,35.00
2018-06-01T13:28:31.075Z,39.47
2018-06-01T13:30:58.710Z,37.57
2018-06-01T13:33:26.968Z,31.73
2018-06-01T13:35:54.539Z,12.57
2018-06-01T13:38:22.417Z,11.13
2018-06-01T13:40:50.285Z,8.20
2018-06-01T13:43:17.851Z,6.63
2018-06-01T13:45:45.826Z,6.40
2018-06-01T13:48:13.507Z,6.90
2018-06-01T13:50:41.513Z,6.60
2018-06-01T13:53:09.121Z,14.27
2018-06-01T13:55:36.977Z,11.53
2018-06-01T13:58:04.558Z,13.20
2018-06-01T14:00:32.204Z,20.60
2018-06-01T14:06:22.087Z,10.03
2018-06-01T14:11:30.611Z,7.50
2018-06-01T14:16:38.013Z,7.80
2018-06-01T14:19:07.801Z,3.90
2018-06-01T14:21:36.114Z,2.40
2018-06-01T14:24:03.719Z,2.40
2018-06-01T14:26:31.587Z,4.80
2018-06-01T14:28:59.714Z,5.00
2018-06-01T14:31:28.107Z,5.40
2018-06-01T14:33:55.946Z,4.67
2018-06-01T14:36:23.833Z,6.60
2018-06-01T14:38:52.406Z,7.53
2018-06-01T14:41:20.036Z,8.20
2018-06-01T14:43:47.688Z,8.33
2018-06-01T14:46:15.289Z,8.43
2018-06-01T14:48:43.131Z,8.67
2018-06-01T14:51:10.745Z,7.97
2018-06-01T14:53:39.157Z,10.40
2018-06-01T14:56:08.066Z,10.57
2018-06-01T14:58:35.813Z,10.50
2018-06-01T15:01:15.648Z,10.63
2018-06-01T15:06:37.631Z,10.83
2018-06-01T15:09:16.303Z,8.93
2018-06-01T15:18:15.063Z,8.83
2018-06-01T15:20:43.848Z,9.03
2018-06-01T15:23:12.167Z,9.03
2018-06-01T15:25:40.117Z,9.53
2018-06-01T15:28:08.617Z,9.60
2018-06-01T15:30:41.605Z,9.83
2018-06-01T15:33:13.680Z,12.10
2018-06-01T15:35:44.238Z,10.03
2018-06-01T15:41:07.884Z,10.73
2018-06-01T15:43:35.910Z,11.83
2018-06-01T15:46:03.968Z,11.60
2018-06-01T15:48:31.873Z,12.40
2018-06-01T15:50:59.577Z,11.77
2018-06-01T15:53:27.660Z,11.27
2018-06-01T15:55:55.542Z,12.00
2018-06-01T15:58:28.227Z,11.43
2018-06-01T16:00:57.031Z,10.07
2018-06-01T16:03:25.421Z,10.93
2018-06-01T16:05:58.034Z,10.33
2018-06-01T16:08:30.445Z,10.80
2018-06-01T16:10:58.193Z,10.77
2018-06-01T16:13:32.989Z,11.20
2018-06-01T16:16:03.869Z,10.87
2018-06-01T16:18:51.226Z,12.60
2018-06-01T16:21:23.573Z,10.10
2018-06-01T16:23:53.743Z,10.70
2018-06-01T16:26:26.627Z,12.27
2018-06-01T16:28:56.922Z,13.30
2018-06-01T16:31:24.673Z,11.43
2018-06-01T16:33:52.366Z,11.73
2018-06-01T16:36:20.081Z,11.87
2018-06-01T16:38:47.727Z,11.87
2018-06-01T16:41:15.693Z,13.33
2018-06-01T16:43:43.542Z,12.47
2018-06-01T16:46:11.185Z,12.80
2018-06-01T16:48:39.090Z,12.80
2018-06-01T16:51:06.730Z,12.90
2018-06-01T16:53:34.357Z,12.47
2018-06-01T16:56:01.977Z,13.10
2018-06-01T16:58:29.591Z,13.50
2018-06-01T17:00:57.202Z,13.00
2018-06-01T17:03:24.786Z,12.50
2018-06-01T17:05:52.385Z,11.70
2018-06-01T17:08:19.972Z,12.43
2018-06-01T17:10:47.687Z,12.50
2018-06-01T17:13:15.500Z,11.40
2018-06-01T17:15:43.096Z,11.93
2018-06-01T17:18:10.939Z,10.90
2018-06-01T17:20:38.529Z,11.40
2018-06-01T17:23:06.157Z,11.83
2018-06-01T17:25:33.746Z,12.00
2018-06-01T17:28:01.332Z,10.03
2018-06-01T17:30:28.931Z,10.60
2018-06-01T17:32:56.636Z,10.20
2018-06-01T17:35:24.303Z,10.27
2018-06-01T17:37:52.270Z,10.90
2018-06-01T17:40:19.960Z,11.00
2018-06-01T17:42:47.538Z,11.50
2018-06-01T17:45:15.187Z,9.40
2018-06-01T17:47:42.918Z,11.60
2018-06-01T17:50:10.510Z,11.10
2018-06-01T17:52:38.090Z,11.00
2018-06-01T17:55:06.272Z,11.33
2018-06-01T17:57:33.902Z,11.93
2018-06-01T18:00:01.730Z,11.00
2018-06-01T18:02:29.466Z,11.10
2018-06-01T18:04:57.271Z,11.40
2018-06-01T18:07:25.086Z,11.33
2018-06-01T18:09:52.681Z,11.67
2018-06-01T18:12:20.620Z,11.63
2018-06-01T18:14:48.189Z,13.37
2018-06-01T18:17:15.753Z,12.40
2018-06-01T18:19:43.347Z,11.73
2018-06-01T18:22:10.917Z,12.97
2018-06-01T18:24:38.747Z,12.67
2018-06-01T18:27:06.328Z,12.70
2018-06-01T18:29:33.897Z,12.97
2018-06-01T18:32:01.488Z,10.77
2018-06-01T18:34:29.205Z,14.10
2018-06-01T18:36:56.780Z,14.17
2018-06-01T18:39:24.349Z,12.13
2018-06-01T18:41:52.171Z,12.30
2018-06-01T18:44:19.978Z,11.40
2018-06-01T18:46:47.575Z,12.00
2018-06-01T18:49:15.146Z,10.10
2018-06-01T18:51:42.780Z,13.80
2018-06-01T18:54:10.593Z,14.50
2018-06-01T18:56:38.391Z,14.67
2018-06-01T18:59:06.349Z,14.60
2018-06-01T19:01:33.928Z,19.00
2018-06-01T19:04:01.546Z,23.00
2018-06-01T19:06:29.142Z,24.00
2018-06-01T19:08:56.714Z,26.80
2018-06-01T19:11:24.315Z,29.93
2018-06-01T19:13:51.945Z,31.77
2018-06-01T19:16:19.757Z,44.27
2018-06-01T19:18:47.330Z,44.30
2018-06-01T19:21:15.274Z,48.40
2018-06-01T19:23:42.860Z,54.77
2018-06-01T19:26:10.513Z,62.77
2018-06-01T19:28:38.234Z,68.23
2018-06-01T19:31:05.813Z,70.97
2018-06-01T19:33:33.451Z,76.70
2018-06-01T19:36:01.314Z,84.43
2018-06-01T19:38:28.892Z,87.70
2018-06-01T19:40:56.464Z,82.60
2018-06-01T19:43:24.137Z,81.67
2018-06-01T19:45:51.760Z,86.67
2018-06-01T19:48:19.333Z,85.10
2018-06-01T19:50:46.990Z,82.63
2018-06-01T19:53:14.566Z,82.33
2018-06-01T19:55:42.179Z,81.60
2018-06-01T19:58:09.788Z,82.57
2018-06-01T20:00:37.373Z,85.07
2018-06-01T20:03:04.965Z,86.73
2018-06-01T20:05:32.799Z,83.93
2018-06-01T20:08:00.359Z,82.10
2018-06-01T20:10:28.248Z,84.83
2018-06-01T20:12:55.940Z,81.07
2018-06-01T20:15:23.592Z,82.33
2018-06-01T20:17:51.505Z,83.50
2018-06-01T20:20:19.321Z,81.53
2018-06-01T20:22:46.884Z,76.63
2018-06-01T20:25:14.573Z,79.77
2018-06-01T20:27:42.148Z,79.90
2018-06-01T20:30:10.010Z,77.87
2018-06-01T20:32:37.647Z,79.13
2018-06-01T20:35:05.307Z,76.17
2018-06-01T20:37:32.928Z,62.27
2018-06-01T20:40:00.601Z,56.87
2018-06-01T20:42:28.545Z,55.87
2018-06-01T20:44:56.179Z,54.17
2018-06-01T20:47:23.870Z,57.83
2018-06-01T20:49:51.783Z,54.63
2018-06-01T20:52:19.425Z,55.00
2018-06-01T20:54:48.053Z,56.47
2018-06-01T20:57:15.872Z,57.77
2018-06-01T20:59:43.463Z,55.90
2018-06-01T21:02:11.381Z,61.80
2018-06-01T21:04:38.983Z,58.83
2018-06-01T21:07:06.545Z,59.50
2018-06-01T21:09:34.202Z,62.17
2018-06-01T21:12:01.797Z,59.23
2018-06-01T21:14:29.420Z,62.60
2018-06-01T21:16:57.022Z,62.27
2018-06-01T21:19:24.656Z,63.30
2018-06-01T21:21:52.256Z,62.17
2018-06-01T21:24:19.820Z,65.67
2018-06-01T21:26:47.920Z,65.50
2018-06-01T21:29:15.488Z,66.70
2018-06-01T21:31:43.067Z,65.87
2018-06-01T21:34:10.759Z,64.90
2018-06-01T21:36:38.329Z,66.37
2018-06-01T21:39:06.918Z,69.57
2018-06-01T21:41:34.483Z,66.07
2018-06-01T21:44:02.057Z,61.60
2018-06-01T21:46:29.912Z,57.93
2018-06-01T21:48:57.475Z,58.97
2018-06-01T21:51:25.182Z,58.27
2018-06-01T21:53:52.992Z,57.50
2018-06-01T21:56:20.557Z,51.50
2018-06-01T21:58:48.163Z,56.83
2018-06-01T22:01:15.849Z,53.87
2018-06-01T22:03:43.429Z,54.27
2018-06-01T22:06:11.050Z,51.57
2018-06-01T22:08:38.634Z,54.60
2018-06-01T22:11:06.481Z,55.33
2018-06-01T22:13:34.107Z,55.03
2018-06-01T22:16:02.076Z,55.90
2018-06-01T22:18:29.799Z,53.97
2018-06-01T22:20:57.411Z,52.90
2018-06-01T22:23:25.392Z,49.70
2018-06-01T22:25:53.041Z,50.77
2018-06-01T22:28:20.680Z,52.37
2018-06-01T22:30:48.302Z,53.03
2018-06-01T22:33:15.896Z,54.67
2018-06-01T22:35:43.508Z,55.10
2018-06-01T22:38:11.084Z,52.83
2018-06-01T22:40:38.765Z,53.17
2018-06-01T22:43:06.436Z,53.60
2018-06-01T22:45:34.043Z,55.43
2018-06-01T22:48:01.714Z,54.40
2018-06-01T22:50:29.476Z,56.80
2018-06-01T22:52:57.374Z,55.20
2018-06-01T22:55:25.262Z,52.53
2018-06-01T22:57:53.368Z,50.87
2018-06-01T23:00:45.848Z,49.63
2018-06-01T23:03:13.480Z,42.60
2018-06-01T23:05:41.246Z,37.00
2018-06-01T23:08:08.860Z,33.40
2018-06-01T23:10:36.536Z,32.07
2018-06-01T23:13:04.477Z,33.47
2018-06-01T23:15:32.489Z,28.50
2018-06-01T23:18:00.512Z,29.70
2018-06-01T23:20:28.318Z,26.57
2018-06-01T23:22:56.932Z,25.90
2018-06-01T23:25:24.560Z,25.50
2018-06-01T23:27:52.129Z,25.60
2018-06-01T23:30:20.077Z,24.17
2018-06-01T23:32:47.641Z,22.00
2018-06-01T23:35:15.288Z,24.80
2018-06-01T23:37:43.291Z,21.80
2018-06-01T23:40:10.873Z,20.93
2018-06-01T23:42:38.526Z,22.90
2018-06-01T23:45:06.176Z,20.83
2018-06-01T23:47:33.762Z,21.80
2018-06-01T23:50:01.342Z,18.20
2018-06-01T23:52:29.020Z,19.20
2018-06-01T23:54:56.652Z,18.83
2018-06-01T23:57:24.490Z,18.00
2018-06-01T23:59:52.114Z,21.50
